createdAt,value
2023-01-20T00:00:12.708Z,53.57
2023-01-20T00:03:01.758Z,53.63
2023-01-20T00:05:53.754Z,54.67
2023-01-20T00:08:42.665Z,53.27
2023-01-20T00:11:32.335Z,55.80
2023-01-20T00:14:21.247Z,53.97
2023-01-20T00:17:11.444Z,50.63
2023-01-20T00:20:00.151Z,53.30
2023-01-20T00:22:48.894Z,56.43
2023-01-20T00:25:38.053Z,58.53
2023-01-20T00:28:27.194Z,58.30
2023-01-20T00:31:17.884Z,63.73
2023-01-20T00:34:08.512Z,60.30
2023-01-20T00:36:57.295Z,63.87
2023-01-20T00:39:46.077Z,66.27
2023-01-20T00:42:34.801Z,69.60
2023-01-20T00:45:23.525Z,63.00
2023-01-20T00:48:12.304Z,56.93
2023-01-20T00:51:02.791Z,56.27
2023-01-20T00:53:51.722Z,54.57
2023-01-20T00:56:40.497Z,53.00
2023-01-20T00:59:29.474Z,51.60
2023-01-20T01:02:18.320Z,48.50
2023-01-20T01:05:08.203Z,42.77
2023-01-20T01:07:58.438Z,45.00
2023-01-20T01:10:47.336Z,43.50
2023-01-20T01:13:37.409Z,40.03
2023-01-20T01:16:26.263Z,41.50
2023-01-20T01:19:16.048Z,45.00
2023-01-20T01:22:04.742Z,43.73
2023-01-20T01:24:56.726Z,40.90
2023-01-20T01:27:45.925Z,41.73
2023-01-20T01:30:35.157Z,38.17
2023-01-20T01:33:23.847Z,42.13
2023-01-20T01:36:15.361Z,39.57
2023-01-20T01:39:04.228Z,39.27
2023-01-20T01:41:54.486Z,40.17
2023-01-20T01:45:24.629Z,39.10
2023-01-20T01:48:13.661Z,39.27
2023-01-20T01:51:07.215Z,39.20
2023-01-20T01:54:01.585Z,39.70
2023-01-20T01:56:51.595Z,37.17
2023-01-20T01:59:41.939Z,37.13
2023-01-20T02:02:31.552Z,39.47
2023-01-20T02:05:22.132Z,38.50
2023-01-20T02:08:10.957Z,38.07
2023-01-20T02:10:59.759Z,37.87
2023-01-20T02:13:48.851Z,38.00
2023-01-20T02:16:50.578Z,38.87
2023-01-20T02:20:21.955Z,39.00
2023-01-20T02:23:14.593Z,40.50
2023-01-20T02:26:41.298Z,40.43
2023-01-20T02:29:53.809Z,43.00
2023-01-20T02:32:54.492Z,41.27
2023-01-20T02:35:47.468Z,41.90
2023-01-20T02:38:43.567Z,44.13
2023-01-20T02:41:40.042Z,45.40
2023-01-20T02:44:37.049Z,43.50
2023-01-20T02:47:32.381Z,44.27
2023-01-20T02:50:27.238Z,44.83
2023-01-20T02:53:18.132Z,46.63
2023-01-20T02:56:09.880Z,48.50
2023-01-20T02:59:02.345Z,50.73
2023-01-20T03:01:56.371Z,46.37
2023-01-20T03:04:51.665Z,49.27
2023-01-20T03:07:44.084Z,46.20
2023-01-20T03:10:36.832Z,51.80
2023-01-20T03:13:31.758Z,47.57
2023-01-20T03:16:23.763Z,46.20
2023-01-20T03:19:12.984Z,44.27
2023-01-20T03:22:01.943Z,46.97
2023-01-20T03:24:52.904Z,45.87
2023-01-20T03:27:42.843Z,48.13
2023-01-20T03:30:31.961Z,44.57
2023-01-20T03:33:20.990Z,45.10
2023-01-20T03:36:10.732Z,47.27
2023-01-20T03:39:00.619Z,49.17
2023-01-20T03:42:02.990Z,49.63
2023-01-20T03:45:02.251Z,46.40
2023-01-20T03:47:58.314Z,48.03
2023-01-20T03:50:53.926Z,53.63
2023-01-20T03:53:49.117Z,53.27
2023-01-20T03:56:43.128Z,58.53
2023-01-20T03:59:35.529Z,53.90
2023-01-20T04:02:25.247Z,53.33
2023-01-20T04:05:15.409Z,58.37
2023-01-20T04:08:09.196Z,58.17
2023-01-20T04:11:01.118Z,58.87
2023-01-20T04:13:51.132Z,61.50
2023-01-20T04:16:41.552Z,55.90
2023-01-20T04:19:30.283Z,59.80
2023-01-20T04:22:23.918Z,62.03
2023-01-20T04:25:18.806Z,61.37
2023-01-20T04:28:07.476Z,54.20
2023-01-20T04:30:56.263Z,60.57
2023-01-20T04:33:46.323Z,56.07
2023-01-20T04:36:35.097Z,60.70
2023-01-20T04:39:23.901Z,64.03
2023-01-20T04:42:12.716Z,58.43
2023-01-20T04:45:01.557Z,55.50
2023-01-20T04:47:50.154Z,53.67
2023-01-20T04:50:41.931Z,60.20
2023-01-20T04:53:31.203Z,55.43
2023-01-20T04:56:20.004Z,51.07
2023-01-20T04:59:08.629Z,57.13
2023-01-20T05:01:57.436Z,53.93
2023-01-20T05:04:46.093Z,55.77
2023-01-20T05:07:36.276Z,57.67
2023-01-20T05:10:25.031Z,57.43
2023-01-20T05:13:13.795Z,57.03
2023-01-20T05:16:03.167Z,51.53
2023-01-20T05:18:52.542Z,55.33
2023-01-20T05:21:42.675Z,58.33
2023-01-20T05:24:33.565Z,53.20
2023-01-20T05:27:22.343Z,53.33
2023-01-20T05:30:12.287Z,50.73
2023-01-20T05:33:01.254Z,53.73
2023-01-20T05:35:50.070Z,51.23
2023-01-20T05:38:39.216Z,52.20
2023-01-20T05:41:29.606Z,53.23
2023-01-20T05:44:18.408Z,53.43
2023-01-20T05:47:07.231Z,50.90
2023-01-20T05:49:55.914Z,53.00
2023-01-20T05:52:44.560Z,46.40
2023-01-20T05:55:33.318Z,48.57
2023-01-20T05:58:23.349Z,53.43
2023-01-20T06:01:14.629Z,55.43
2023-01-20T06:04:03.533Z,53.23
2023-01-20T06:06:52.272Z,55.47
2023-01-20T06:09:40.930Z,57.97
2023-01-20T06:12:32.622Z,59.07
2023-01-20T06:15:23.798Z,58.30
2023-01-20T06:18:12.954Z,55.17
2023-01-20T06:21:01.941Z,56.80
2023-01-20T06:23:50.768Z,62.33
2023-01-20T06:26:39.497Z,61.30
2023-01-20T06:29:31.130Z,61.40
2023-01-20T06:32:21.278Z,58.37
2023-01-20T06:35:11.418Z,56.70
2023-01-20T06:38:00.394Z,58.17
2023-01-20T06:40:49.311Z,59.53
2023-01-20T06:43:40.297Z,57.43
2023-01-20T06:46:30.540Z,54.87
2023-01-20T06:49:20.957Z,57.50
2023-01-20T06:52:09.993Z,59.00
2023-01-20T06:54:58.761Z,58.50
2023-01-20T06:57:47.451Z,55.90
2023-01-20T07:00:36.541Z,49.00
2023-01-20T07:03:25.841Z,52.23
2023-01-20T07:06:30.833Z,49.67
2023-01-20T07:09:19.502Z,47.63
2023-01-20T07:12:08.825Z,53.17
2023-01-20T07:14:57.518Z,53.83
2023-01-20T07:17:46.272Z,48.00
2023-01-20T07:20:35.234Z,54.47
2023-01-20T07:23:25.936Z,48.77
2023-01-20T07:26:16.528Z,51.17
2023-01-20T07:29:05.353Z,48.60
2023-01-20T07:31:54.190Z,47.60
2023-01-20T07:34:42.987Z,54.67
2023-01-20T07:37:31.810Z,53.23
2023-01-20T07:40:21.948Z,49.40
2023-01-20T07:43:10.646Z,46.93
2023-01-20T07:46:00.141Z,53.23
2023-01-20T07:48:49.577Z,51.83
2023-01-20T07:51:40.260Z,51.43
2023-01-20T07:54:29.105Z,51.83
2023-01-20T07:57:19.314Z,49.87
2023-01-20T08:00:09.683Z,53.17
2023-01-20T08:02:58.459Z,47.97
2023-01-20T08:05:47.232Z,52.03
2023-01-20T08:08:37.079Z,52.37
2023-01-20T08:11:25.864Z,57.87
2023-01-20T08:14:16.180Z,53.00
2023-01-20T08:17:05.638Z,54.53
2023-01-20T08:19:54.445Z,51.63
2023-01-20T08:22:43.339Z,52.80
2023-01-20T08:25:32.010Z,47.83
2023-01-20T08:28:20.814Z,46.87
2023-01-20T08:31:16.941Z,46.80
2023-01-20T08:34:06.616Z,48.40
2023-01-20T08:36:57.441Z,49.53
2023-01-20T08:39:47.416Z,45.00
2023-01-20T08:42:40.053Z,46.30
2023-01-20T08:45:29.181Z,45.27
2023-01-20T08:48:20.504Z,43.93
2023-01-20T08:51:14.259Z,46.67
2023-01-20T08:54:03.602Z,50.50
2023-01-20T08:56:58.651Z,45.33
2023-01-20T08:59:52.066Z,51.33
2023-01-20T09:02:41.072Z,51.17
2023-01-20T09:05:31.918Z,41.93
2023-01-20T09:08:21.854Z,48.83
2023-01-20T09:11:13.268Z,43.90
2023-01-20T09:14:02.449Z,45.17
2023-01-20T09:16:51.322Z,44.90
2023-01-20T09:19:40.004Z,40.37
2023-01-20T09:22:30.518Z,40.47
2023-01-20T09:25:19.546Z,37.90
2023-01-20T09:28:08.286Z,35.73
2023-01-20T09:31:00.230Z,36.63
2023-01-20T09:33:49.294Z,37.87
2023-01-20T09:36:38.565Z,42.17
2023-01-20T09:39:46.079Z,42.33
2023-01-20T09:43:06.689Z,36.87
2023-01-20T09:46:01.019Z,41.57
2023-01-20T09:49:16.530Z,35.20
2023-01-20T09:52:32.344Z,39.97
2023-01-20T09:55:27.924Z,39.83
2023-01-20T09:58:24.104Z,38.47
2023-01-20T10:01:19.269Z,37.20
2023-01-20T10:04:15.223Z,37.53
2023-01-20T10:07:11.107Z,37.47
2023-01-20T10:10:10.717Z,38.47
2023-01-20T10:13:06.966Z,36.53
2023-01-20T10:15:58.579Z,39.33
2023-01-20T10:18:53.062Z,36.27
2023-01-20T10:21:46.006Z,37.37
2023-01-20T10:24:38.834Z,40.43
2023-01-20T10:27:31.121Z,36.10
2023-01-20T10:30:25.523Z,39.53
2023-01-20T10:33:16.354Z,34.93
2023-01-20T10:36:05.896Z,38.33
2023-01-20T10:38:59.619Z,39.23
2023-01-20T10:41:54.014Z,40.77
2023-01-20T10:44:43.612Z,38.17
2023-01-20T10:47:44.968Z,43.80
2023-01-20T10:50:48.874Z,42.40
2023-01-20T10:53:49.118Z,41.03
2023-01-20T10:56:43.967Z,39.27
2023-01-20T10:59:36.071Z,30.27
2023-01-20T11:02:28.034Z,30.30
2023-01-20T11:05:22.209Z,34.10
2023-01-20T11:08:18.344Z,32.77
2023-01-20T11:11:13.838Z,30.73
2023-01-20T11:14:04.031Z,33.10
2023-01-20T11:16:58.262Z,33.13
2023-01-20T11:19:50.465Z,36.67
2023-01-20T11:22:46.467Z,33.13
2023-01-20T11:25:35.445Z,33.47
2023-01-20T11:28:25.440Z,37.30
2023-01-20T11:31:14.774Z,33.67
2023-01-20T11:34:21.164Z,33.33
2023-01-20T11:37:18.966Z,31.60
2023-01-20T11:40:21.346Z,32.10
2023-01-20T11:43:35.361Z,34.37
2023-01-20T11:46:28.836Z,34.37
2023-01-20T11:49:22.163Z,28.47
2023-01-20T11:52:21.456Z,28.37
2023-01-20T11:55:14.389Z,30.60
2023-01-20T11:58:06.089Z,29.50
2023-01-20T12:01:02.260Z,31.40
2023-01-20T12:04:22.809Z,30.87
2023-01-20T12:07:15.478Z,29.87
2023-01-20T12:10:13.603Z,32.63
2023-01-20T12:13:09.146Z,28.13
2023-01-20T12:16:02.289Z,33.67
2023-01-20T12:19:02.169Z,31.63
2023-01-20T12:21:54.298Z,31.57
2023-01-20T12:25:09.195Z,34.93
2023-01-20T12:28:04.242Z,32.20
2023-01-20T12:31:03.097Z,33.23
2023-01-20T12:33:56.661Z,39.10
2023-01-20T12:37:05.892Z,40.87
2023-01-20T12:40:07.376Z,35.10
2023-01-20T12:43:22.222Z,37.87
2023-01-20T12:46:34.526Z,39.77
2023-01-20T12:49:48.960Z,39.50
2023-01-20T12:52:50.339Z,35.37
2023-01-20T12:55:52.711Z,35.13
2023-01-20T12:58:52.108Z,34.73
2023-01-20T13:01:55.727Z,35.67
2023-01-20T13:05:18.629Z,30.07
2023-01-20T13:08:14.872Z,23.33
2023-01-20T13:11:17.246Z,21.53
2023-01-20T13:14:17.142Z,25.50
2023-01-20T13:17:18.871Z,29.07
2023-01-20T13:20:21.257Z,25.60
2023-01-20T13:23:14.809Z,27.97
2023-01-20T13:26:06.277Z,29.87
2023-01-20T13:28:56.949Z,24.17
2023-01-20T13:31:47.497Z,23.03
2023-01-20T13:34:41.905Z,27.03
2023-01-20T13:37:36.865Z,21.80
2023-01-20T13:40:51.115Z,20.13
2023-01-20T13:43:54.757Z,18.80
2023-01-20T13:46:48.504Z,19.83
2023-01-20T13:49:51.840Z,20.53
2023-01-20T13:53:22.318Z,18.33
2023-01-20T13:56:33.695Z,18.90
2023-01-20T13:59:24.951Z,19.77
2023-01-20T14:02:19.197Z,19.83
2023-01-20T14:05:23.610Z,16.30
2023-01-20T14:08:15.997Z,19.90
2023-01-20T14:11:08.513Z,19.90
2023-01-20T14:13:59.943Z,19.63
2023-01-20T14:16:48.910Z,18.10
2023-01-20T14:19:38.412Z,19.53
2023-01-20T14:22:33.053Z,20.73
2023-01-20T14:25:24.341Z,20.57
2023-01-20T14:28:20.855Z,17.13
2023-01-20T14:31:37.640Z,17.27
2023-01-20T14:34:30.613Z,15.87
2023-01-20T14:37:28.904Z,20.37
2023-01-20T14:40:25.612Z,21.60
2023-01-20T14:43:20.372Z,21.93
2023-01-20T14:46:09.825Z,22.03
2023-01-20T14:49:00.163Z,20.33
2023-01-20T14:51:51.493Z,23.50
2023-01-20T14:54:44.356Z,25.00
2023-01-20T14:57:35.586Z,27.67
2023-01-20T15:00:27.373Z,25.83
2023-01-20T15:03:20.925Z,27.37
2023-01-20T15:06:22.139Z,27.20
2023-01-20T15:09:31.457Z,25.50
2023-01-20T15:12:42.726Z,28.53
2023-01-20T15:15:33.051Z,26.20
2023-01-20T15:18:23.722Z,28.87
2023-01-20T15:21:23.543Z,29.30
2023-01-20T15:24:14.725Z,28.97
2023-01-20T15:27:04.431Z,30.90
2023-01-20T15:30:18.820Z,30.77
2023-01-20T15:33:10.729Z,31.87
2023-01-20T15:36:01.660Z,33.43
2023-01-20T15:38:51.073Z,28.07
2023-01-20T15:41:40.221Z,25.77
2023-01-20T15:44:32.418Z,28.23
2023-01-20T15:47:31.935Z,30.70
2023-01-20T15:50:23.254Z,30.63
2023-01-20T15:53:13.202Z,25.93
2023-01-20T15:56:03.167Z,31.00
2023-01-20T15:58:52.962Z,25.33
2023-01-20T16:01:41.975Z,29.37
2023-01-20T16:04:32.590Z,29.97
2023-01-20T16:07:22.475Z,31.07
2023-01-20T16:10:17.540Z,27.57
2023-01-20T16:13:06.437Z,25.23
2023-01-20T16:15:58.582Z,30.50
2023-01-20T16:18:48.016Z,28.20
2023-01-20T16:21:38.285Z,26.80
2023-01-20T16:24:27.161Z,25.00
2023-01-20T16:27:19.015Z,25.53
2023-01-20T16:30:09.056Z,22.00
2023-01-20T16:32:58.204Z,19.40
2023-01-20T16:35:48.674Z,17.33
2023-01-20T16:38:39.865Z,18.20
2023-01-20T16:41:31.586Z,19.50
2023-01-20T16:44:20.420Z,19.43
2023-01-20T16:47:09.458Z,23.47
2023-01-20T16:49:58.315Z,23.13
2023-01-20T16:52:47.617Z,25.17
2023-01-20T16:55:37.955Z,27.93
2023-01-20T16:58:26.915Z,29.13
2023-01-20T17:01:20.955Z,28.87
2023-01-20T17:04:10.918Z,29.87
2023-01-20T17:07:00.107Z,26.23
2023-01-20T17:09:48.980Z,28.40
2023-01-20T17:12:39.262Z,29.83
2023-01-20T17:15:34.215Z,30.00
2023-01-20T17:18:23.640Z,25.73
2023-01-20T17:21:13.684Z,27.97
2023-01-20T17:24:08.745Z,25.13
2023-01-20T17:27:00.023Z,26.73
2023-01-20T17:29:50.855Z,23.10
2023-01-20T17:32:39.704Z,23.50
2023-01-20T17:35:30.119Z,24.43
2023-01-20T17:38:19.144Z,23.63
2023-01-20T17:41:08.915Z,22.70
2023-01-20T17:43:57.637Z,22.03
2023-01-20T17:46:50.261Z,19.17
2023-01-20T17:49:39.603Z,21.27
2023-01-20T17:52:31.637Z,20.37
2023-01-20T17:58:18.569Z,24.40
2023-01-20T18:01:11.884Z,22.57
2023-01-20T18:04:04.412Z,22.20
2023-01-20T18:06:53.251Z,21.50
2023-01-20T18:09:43.055Z,23.30
2023-01-20T18:12:32.404Z,23.23
2023-01-20T18:15:21.756Z,21.13
2023-01-20T18:18:10.596Z,20.80
2023-01-20T18:21:10.444Z,21.30
2023-01-20T18:24:00.258Z,21.37
2023-01-20T18:26:49.249Z,21.40
2023-01-20T18:29:37.904Z,20.07
2023-01-20T18:32:26.914Z,21.03
2023-01-20T18:35:16.150Z,21.37
2023-01-20T18:38:06.345Z,19.57
2023-01-20T18:40:55.193Z,20.97
2023-01-20T18:43:44.065Z,21.63
2023-01-20T18:46:33.595Z,23.00
2023-01-20T18:49:22.636Z,23.50
2023-01-20T18:52:11.658Z,19.10
2023-01-20T18:55:01.978Z,18.73
2023-01-20T18:57:50.891Z,20.67
2023-01-20T19:00:39.842Z,22.63
2023-01-20T19:03:29.022Z,22.07
2023-01-20T19:06:19.154Z,19.20
2023-01-20T19:09:08.711Z,18.47
2023-01-20T19:12:06.798Z,17.50
2023-01-20T19:14:56.347Z,18.20
2023-01-20T19:17:45.078Z,16.40
2023-01-20T19:20:33.791Z,18.53
2023-01-20T19:23:22.566Z,16.10
2023-01-20T19:26:14.043Z,14.90
2023-01-20T19:29:06.909Z,16.13
2023-01-20T19:31:55.932Z,13.97
2023-01-20T19:34:45.944Z,15.40
2023-01-20T19:37:34.688Z,13.97
2023-01-20T19:40:23.663Z,13.63
2023-01-20T19:43:12.523Z,15.37
2023-01-20T19:46:04.460Z,16.67
2023-01-20T19:48:57.389Z,15.07
2023-01-20T19:51:46.353Z,17.13
2023-01-20T19:54:36.711Z,18.57
2023-01-20T19:57:27.407Z,16.17
2023-01-20T20:00:17.337Z,15.80
2023-01-20T20:03:08.394Z,15.63
2023-01-20T20:05:57.900Z,17.23
2023-01-20T20:08:46.919Z,15.67
2023-01-20T20:11:36.319Z,15.30
2023-01-20T20:14:27.418Z,16.23
2023-01-20T20:17:16.462Z,14.03
2023-01-20T20:20:07.699Z,14.23
2023-01-20T20:22:56.637Z,14.07
2023-01-20T20:25:49.850Z,14.23
2023-01-20T20:28:38.830Z,16.77
2023-01-20T20:31:29.653Z,14.03
2023-01-20T20:34:19.675Z,16.73
2023-01-20T20:37:09.711Z,16.27
2023-01-20T20:39:58.553Z,15.53
2023-01-20T20:42:48.672Z,16.77
2023-01-20T20:45:37.496Z,14.50
2023-01-20T20:48:26.291Z,15.40
2023-01-20T20:51:16.877Z,13.73
2023-01-20T20:54:07.072Z,15.20
2023-01-20T20:56:55.855Z,15.00
2023-01-20T20:59:58.254Z,14.83
2023-01-20T21:02:48.093Z,13.00
2023-01-20T21:05:37.107Z,14.13
2023-01-20T21:08:26.101Z,15.57
2023-01-20T21:11:16.227Z,20.20
2023-01-20T21:14:05.077Z,14.27
2023-01-20T21:16:53.947Z,17.00
2023-01-20T21:19:42.801Z,14.60
2023-01-20T21:22:34.602Z,14.90
2023-01-20T21:25:24.210Z,12.83
2023-01-20T21:28:17.532Z,15.37
2023-01-20T21:31:09.266Z,15.27
2023-01-20T21:33:59.298Z,13.20
2023-01-20T21:36:48.290Z,11.97
2023-01-20T21:39:37.042Z,14.63
2023-01-20T21:42:25.882Z,14.03
2023-01-20T21:45:15.108Z,13.07
2023-01-20T21:48:24.138Z,12.87
2023-01-20T21:51:30.329Z,14.10
2023-01-20T21:54:19.583Z,15.30
2023-01-20T21:57:08.434Z,15.03
2023-01-20T21:59:57.221Z,16.23
2023-01-20T22:02:47.776Z,17.40
2023-01-20T22:05:39.749Z,15.47
2023-01-20T22:08:30.653Z,17.47
2023-01-20T22:11:19.527Z,15.33
2023-01-20T22:14:08.465Z,15.90
2023-01-20T22:16:57.299Z,16.73
2023-01-20T22:19:47.685Z,15.17
2023-01-20T22:22:36.507Z,14.67
2023-01-20T22:25:25.402Z,14.60
2023-01-20T22:28:14.094Z,13.53
2023-01-20T22:31:07.043Z,13.27
2023-01-20T22:34:11.369Z,14.17
2023-01-20T22:37:02.001Z,13.73
2023-01-20T22:39:51.356Z,13.50
2023-01-20T22:42:40.002Z,11.67
2023-01-20T22:45:30.675Z,13.57
2023-01-20T22:48:19.700Z,13.63
2023-01-20T22:51:10.219Z,12.87
2023-01-20T22:54:02.167Z,15.70
2023-01-20T22:56:51.138Z,12.87
2023-01-20T22:59:39.803Z,13.33
2023-01-20T23:02:31.004Z,14.77
2023-01-20T23:05:19.981Z,15.47
2023-01-20T23:08:08.757Z,14.67
2023-01-20T23:11:03.928Z,14.63
2023-01-20T23:13:53.504Z,15.73
2023-01-20T23:16:43.372Z,17.93
2023-01-20T23:19:32.381Z,18.50
2023-01-20T23:22:21.223Z,18.00
2023-01-20T23:25:12.566Z,18.07
2023-01-20T23:28:02.696Z,18.50
2023-01-20T23:30:51.507Z,18.33
2023-01-20T23:33:43.409Z,18.17
2023-01-20T23:36:32.609Z,17.80
2023-01-20T23:39:21.569Z,24.23
2023-01-20T23:42:10.407Z,18.63
2023-01-20T23:45:01.135Z,17.80
2023-01-20T23:47:50.044Z,20.43
2023-01-20T23:50:42.435Z,21.17
2023-01-20T23:53:33.084Z,20.57
2023-01-20T23:56:24.362Z,22.70
2023-01-20T23:59:13.457Z,21.53
